createdAt,value
2018-04-19T00:02:22.818Z,3.87
2018-04-19T00:04:49.344Z,4.50
2018-04-19T00:07:15.801Z,4.40
2018-04-19T00:09:42.260Z,3.97
2018-04-19T00:12:09.449Z,3.93
2018-04-19T00:14:35.925Z,3.97
2018-04-19T00:17:02.432Z,4.13
2018-04-19T00:19:28.939Z,4.07
2018-04-19T00:21:55.436Z,4.00
2018-04-19T00:24:21.896Z,3.80
2018-04-19T00:26:48.441Z,4.77
2018-04-19T00:29:14.976Z,4.07
2018-04-19T00:31:42.840Z,3.97
2018-04-19T00:34:09.268Z,4.53
2018-04-19T00:36:36.540Z,4.30
2018-04-19T00:39:03.135Z,4.47
2018-04-19T00:41:29.595Z,4.50
2018-04-19T00:43:56.767Z,4.50
2018-04-19T00:46:23.208Z,4.43
2018-04-19T00:48:49.666Z,4.67
2018-04-19T00:51:16.130Z,3.73
2018-04-19T00:53:42.590Z,4.90
2018-04-19T00:56:09.045Z,4.70
2018-04-19T00:58:35.483Z,4.47
2018-04-19T01:01:01.950Z,4.50
2018-04-19T01:03:28.403Z,4.37
2018-04-19T01:05:54.857Z,4.50
2018-04-19T01:08:21.317Z,4.30
2018-04-19T01:10:47.807Z,4.40
2018-04-19T01:13:15.067Z,4.03
2018-04-19T01:15:42.270Z,4.20
2018-04-19T01:18:08.759Z,4.00
2018-04-19T01:20:35.256Z,4.53
2018-04-19T01:23:01.786Z,4.03
2018-04-19T01:25:28.314Z,4.07
2018-04-19T01:27:54.782Z,4.77
2018-04-19T01:30:21.269Z,4.63
2018-04-19T01:32:47.714Z,4.97
2018-04-19T01:35:14.179Z,4.67
2018-04-19T01:37:40.656Z,4.53
2018-04-19T01:40:07.111Z,4.40
2018-04-19T01:42:33.558Z,5.50
2018-04-19T01:45:00.031Z,5.10
2018-04-19T01:47:27.255Z,4.53
2018-04-19T01:49:53.777Z,4.60
2018-04-19T01:52:20.223Z,4.57
2018-04-19T01:54:46.741Z,4.07
2018-04-19T01:57:13.287Z,4.87
2018-04-19T01:59:39.704Z,4.73
2018-04-19T02:02:06.190Z,4.07
2018-04-19T02:04:34.137Z,4.10
2018-04-19T02:07:01.166Z,4.07
2018-04-19T02:09:27.596Z,4.77
2018-04-19T02:11:54.068Z,3.63
2018-04-19T02:14:20.566Z,4.70
2018-04-19T02:16:47.062Z,5.47
2018-04-19T02:19:14.313Z,4.03
2018-04-19T02:21:40.782Z,4.60
2018-04-19T02:24:07.264Z,4.73
2018-04-19T02:26:34.483Z,4.27
2018-04-19T02:29:00.994Z,4.93
2018-04-19T02:31:27.538Z,5.10
2018-04-19T02:33:53.976Z,5.07
2018-04-19T02:36:20.520Z,4.33
2018-04-19T02:38:47.031Z,4.90
2018-04-19T02:41:14.742Z,4.80
2018-04-19T02:43:41.241Z,4.87
2018-04-19T02:46:07.753Z,5.33
2018-04-19T02:48:34.200Z,4.80
2018-04-19T02:51:00.658Z,4.43
2018-04-19T02:53:27.152Z,5.10
2018-04-19T02:55:53.651Z,4.63
2018-04-19T02:58:20.130Z,4.80
2018-04-19T03:00:46.604Z,6.30
2018-04-19T03:03:13.061Z,5.80
2018-04-19T03:05:40.321Z,5.43
2018-04-19T03:08:06.781Z,5.57
2018-04-19T03:10:33.257Z,5.43
2018-04-19T03:13:00.509Z,5.63
2018-04-19T03:15:26.979Z,4.53
2018-04-19T03:17:54.179Z,5.03
2018-04-19T03:20:20.678Z,5.53
2018-04-19T03:22:47.863Z,5.20
2018-04-19T03:25:14.367Z,6.57
2018-04-19T03:27:41.612Z,6.30
2018-04-19T03:30:08.884Z,5.87
2018-04-19T03:32:35.417Z,6.10
2018-04-19T03:35:01.898Z,5.90
2018-04-19T03:37:28.380Z,6.20
2018-04-19T03:39:55.587Z,5.03
2018-04-19T03:42:22.041Z,5.50
2018-04-19T03:44:48.500Z,4.70
2018-04-19T03:47:14.989Z,4.73
2018-04-19T03:49:41.443Z,5.43
2018-04-19T03:52:07.938Z,5.43
2018-04-19T03:54:34.474Z,5.60
2018-04-19T03:57:00.984Z,4.87
2018-04-19T03:59:27.443Z,5.13
2018-04-19T04:01:53.933Z,5.37
2018-04-19T04:04:21.121Z,4.30
2018-04-19T04:06:47.611Z,5.40
2018-04-19T04:09:14.062Z,6.10
2018-04-19T04:11:40.543Z,5.23
2018-04-19T04:14:07.774Z,4.43
2018-04-19T04:16:46.345Z,5.60
2018-04-19T04:19:25.014Z,6.23
2018-04-19T04:22:03.659Z,5.37
2018-04-19T04:24:30.992Z,5.90
2018-04-19T04:26:57.481Z,6.50
2018-04-19T04:29:23.983Z,5.73
2018-04-19T04:31:50.453Z,6.13
2018-04-19T04:34:16.946Z,6.17
2018-04-19T04:36:43.441Z,5.70
2018-04-19T04:39:09.909Z,6.37
2018-04-19T04:41:36.373Z,6.40
2018-04-19T04:44:02.876Z,5.70
2018-04-19T04:46:29.334Z,6.53
2018-04-19T04:48:55.785Z,5.90
2018-04-19T04:51:22.241Z,6.50
2018-04-19T04:53:48.690Z,6.77
2018-04-19T04:56:15.150Z,7.13
2018-04-19T04:58:41.577Z,6.07
2018-04-19T05:01:07.986Z,6.50
2018-04-19T05:03:34.394Z,5.57
2018-04-19T05:06:00.883Z,6.30
2018-04-19T05:08:27.348Z,6.60
2018-04-19T05:10:53.761Z,5.97
2018-04-19T05:13:20.157Z,6.17
2018-04-19T05:15:46.569Z,6.87
2018-04-19T05:18:12.977Z,6.80
2018-04-19T05:20:39.404Z,6.43
2018-04-19T05:23:05.829Z,6.40
2018-04-19T05:25:32.257Z,6.47
2018-04-19T05:27:58.685Z,5.47
2018-04-19T05:30:25.120Z,5.10
2018-04-19T05:32:51.544Z,6.83
2018-04-19T05:35:18.004Z,6.57
2018-04-19T05:37:44.410Z,6.10
2018-04-19T05:40:10.857Z,5.33
2018-04-19T05:42:37.284Z,6.20
2018-04-19T05:45:03.738Z,6.60
2018-04-19T05:47:30.149Z,7.23
2018-04-19T05:49:56.572Z,7.20
2018-04-19T05:52:23.014Z,7.67
2018-04-19T05:54:49.474Z,6.13
2018-04-19T05:57:15.962Z,5.00
2018-04-19T05:59:42.392Z,6.63
2018-04-19T06:02:08.814Z,5.13
2018-04-19T06:04:35.249Z,6.90
2018-04-19T06:07:01.687Z,5.73
2018-04-19T06:09:28.857Z,7.00
2018-04-19T06:11:55.288Z,6.40
2018-04-19T06:14:21.723Z,5.53
2018-04-19T06:16:48.142Z,6.47
2018-04-19T06:19:14.607Z,4.70
2018-04-19T06:21:41.103Z,6.50
2018-04-19T06:24:07.518Z,6.17
2018-04-19T06:26:34.733Z,6.10
2018-04-19T06:29:01.170Z,6.10
2018-04-19T06:31:27.596Z,6.53
2018-04-19T06:33:54.010Z,7.53
2018-04-19T06:36:20.421Z,7.60
2018-04-19T06:38:47.579Z,8.83
2018-04-19T06:41:14.737Z,7.80
2018-04-19T06:43:41.159Z,8.17
2018-04-19T06:46:07.603Z,8.50
2018-04-19T06:48:34.117Z,8.27
2018-04-19T06:51:00.517Z,7.80
2018-04-19T06:53:26.946Z,7.90
2018-04-19T06:55:53.641Z,7.73
2018-04-19T06:58:20.046Z,8.03
2018-04-19T07:00:46.483Z,8.73
2018-04-19T07:03:12.889Z,7.87
2018-04-19T07:05:39.310Z,7.40
2018-04-19T07:08:05.734Z,6.80
2018-04-19T07:10:32.158Z,7.30
2018-04-19T07:12:58.584Z,6.40
2018-04-19T07:15:25.012Z,6.27
2018-04-19T07:17:51.449Z,7.03
2018-04-19T07:20:17.901Z,6.87
2018-04-19T07:22:44.406Z,7.47
2018-04-19T07:25:10.821Z,6.93
2018-04-19T07:27:38.039Z,6.13
2018-04-19T07:30:04.997Z,6.53
2018-04-19T07:32:31.430Z,6.67
2018-04-19T07:34:57.867Z,7.30
2018-04-19T07:37:24.283Z,6.47
2018-04-19T07:39:50.689Z,6.40
2018-04-19T07:42:17.107Z,7.00
2018-04-19T07:44:43.542Z,6.20
2018-04-19T07:47:09.945Z,6.30
2018-04-19T07:49:36.395Z,6.27
2018-04-19T07:52:02.866Z,6.07
2018-04-19T07:54:29.293Z,6.43
2018-04-19T07:56:55.791Z,5.47
2018-04-19T07:59:23.021Z,6.07
2018-04-19T08:01:49.596Z,6.43
2018-04-19T08:04:16.010Z,5.73
2018-04-19T08:06:43.232Z,5.20
2018-04-19T08:09:09.692Z,5.57
2018-04-19T08:11:36.199Z,5.40
2018-04-19T08:14:02.642Z,5.87
2018-04-19T08:16:29.138Z,6.33
2018-04-19T08:18:55.667Z,6.00
2018-04-19T08:21:22.184Z,6.33
2018-04-19T08:23:48.624Z,5.70
2018-04-19T08:26:15.827Z,5.30
2018-04-19T08:28:42.299Z,6.43
2018-04-19T08:31:09.484Z,5.70
2018-04-19T08:33:35.938Z,5.33
2018-04-19T08:36:02.467Z,5.87
2018-04-19T08:38:28.940Z,5.90
2018-04-19T08:40:56.892Z,5.57
2018-04-19T08:43:23.341Z,5.87
2018-04-19T08:45:49.846Z,6.00
2018-04-19T08:48:16.330Z,5.53
2018-04-19T08:50:42.757Z,5.83
2018-04-19T08:53:09.184Z,5.60
2018-04-19T08:55:36.355Z,5.30
2018-04-19T08:58:02.845Z,5.00
2018-04-19T09:00:29.255Z,5.90
2018-04-19T09:02:55.679Z,5.70
2018-04-19T09:05:22.094Z,4.83
2018-04-19T09:07:48.540Z,5.80
2018-04-19T09:10:15.002Z,5.53
2018-04-19T09:12:41.446Z,5.57
2018-04-19T09:15:07.884Z,6.00
2018-04-19T09:17:34.312Z,5.50
2018-04-19T09:20:00.755Z,6.23
2018-04-19T09:22:27.223Z,5.77
2018-04-19T09:24:53.698Z,5.70
2018-04-19T09:27:20.132Z,5.63
2018-04-19T09:29:46.620Z,5.97
2018-04-19T09:32:13.784Z,5.70
2018-04-19T09:34:40.216Z,5.07
2018-04-19T09:37:06.652Z,6.13
2018-04-19T09:39:33.104Z,4.77
2018-04-19T09:42:00.232Z,5.50
2018-04-19T09:44:27.410Z,4.67
2018-04-19T09:46:53.839Z,5.67
2018-04-19T09:49:20.267Z,5.63
2018-04-19T09:51:46.693Z,5.77
2018-04-19T09:54:13.235Z,5.90
2018-04-19T09:56:39.624Z,6.40
2018-04-19T09:59:10.521Z,5.03
2018-04-19T10:01:42.981Z,4.83
2018-04-19T10:04:19.382Z,6.13
2018-04-19T10:06:45.811Z,5.17
2018-04-19T10:09:12.248Z,5.00
2018-04-19T10:11:38.659Z,5.23
2018-04-19T10:14:05.082Z,5.60
2018-04-19T10:16:31.507Z,4.73
2018-04-19T10:18:57.927Z,5.50
2018-04-19T10:21:25.179Z,5.00
2018-04-19T10:23:51.547Z,3.60
2018-04-19T10:26:17.969Z,4.77
2018-04-19T10:28:44.379Z,4.20
2018-04-19T10:31:11.551Z,4.13
2018-04-19T10:33:37.978Z,4.00
2018-04-19T10:36:04.396Z,3.80
2018-04-19T10:38:31.582Z,4.43
2018-04-19T10:40:58.000Z,4.73
2018-04-19T10:43:24.442Z,3.77
2018-04-19T10:45:50.879Z,4.50
2018-04-19T10:51:10.087Z,5.20
2018-04-19T10:53:36.514Z,4.70
2018-04-19T10:56:03.022Z,3.83
2018-04-19T10:58:29.477Z,3.80
2018-04-19T11:00:55.897Z,4.57
2018-04-19T11:03:22.371Z,4.40
2018-04-19T11:05:48.836Z,4.03
2018-04-19T11:08:16.041Z,3.83
2018-04-19T11:10:42.477Z,4.23
2018-04-19T11:13:08.889Z,4.80
2018-04-19T11:15:35.322Z,4.60
2018-04-19T11:18:01.741Z,4.73
2018-04-19T11:20:28.160Z,4.17
2018-04-19T11:22:54.586Z,4.20
2018-04-19T11:25:21.739Z,3.47
2018-04-19T11:27:48.927Z,4.07
2018-04-19T11:30:15.355Z,3.77
2018-04-19T11:32:41.771Z,3.50
2018-04-19T11:35:08.191Z,3.60
2018-04-19T11:37:35.368Z,3.20
2018-04-19T11:40:01.799Z,4.30
2018-04-19T11:42:28.250Z,3.90
2018-04-19T11:44:54.695Z,3.93
2018-04-19T11:47:21.115Z,3.47
2018-04-19T11:49:47.544Z,3.33
2018-04-19T11:52:13.971Z,3.53
2018-04-19T11:54:40.439Z,3.57
2018-04-19T11:57:06.915Z,3.70
2018-04-19T11:59:33.371Z,3.30
2018-04-19T12:01:59.828Z,3.80
2018-04-19T12:04:26.243Z,3.07
2018-04-19T12:06:52.674Z,4.10
2018-04-19T12:09:19.097Z,3.50
2018-04-19T12:11:45.535Z,3.10
2018-04-19T12:14:11.959Z,2.60
2018-04-19T12:16:38.383Z,2.63
2018-04-19T12:19:05.672Z,2.40
2018-04-19T12:21:32.105Z,2.17
2018-04-19T12:23:58.533Z,2.40
2018-04-19T12:26:25.002Z,2.37
2018-04-19T12:28:51.419Z,2.70
2018-04-19T12:31:17.830Z,2.40
2018-04-19T12:33:44.241Z,2.00
2018-04-19T12:36:10.689Z,2.40
2018-04-19T12:38:37.147Z,2.50
2018-04-19T12:41:03.607Z,2.20
2018-04-19T12:43:30.140Z,2.17
2018-04-19T12:45:58.083Z,2.50
2018-04-19T12:48:24.509Z,2.33
2018-04-19T12:50:51.020Z,2.03
2018-04-19T12:53:17.481Z,2.00
2018-04-19T12:55:43.945Z,2.13
2018-04-19T12:58:10.400Z,2.33
2018-04-19T13:00:37.649Z,2.00
2018-04-19T13:03:04.832Z,2.40
2018-04-19T13:05:31.320Z,2.23
2018-04-19T13:07:57.744Z,2.33
2018-04-19T13:10:24.263Z,2.77
2018-04-19T13:12:50.810Z,2.50
2018-04-19T13:15:17.265Z,2.53
2018-04-19T13:17:43.700Z,2.20
2018-04-19T13:20:10.129Z,2.10
2018-04-19T13:22:36.646Z,2.30
2018-04-19T13:25:03.111Z,2.20
2018-04-19T13:27:29.539Z,2.27
2018-04-19T13:29:56.024Z,2.07
2018-04-19T13:32:22.467Z,1.97
2018-04-19T13:34:48.946Z,2.30
2018-04-19T13:37:16.894Z,2.30
2018-04-19T13:39:43.319Z,2.13
2018-04-19T13:42:09.785Z,2.20
2018-04-19T13:44:36.242Z,2.20
2018-04-19T13:47:02.751Z,2.27
2018-04-19T13:49:29.349Z,2.10
2018-04-19T13:51:55.765Z,2.10
2018-04-19T13:54:22.207Z,2.30
2018-04-19T13:56:48.628Z,2.07
2018-04-19T13:59:15.050Z,2.17
2018-04-19T14:01:42.228Z,2.70
2018-04-19T14:04:08.651Z,2.00
2018-04-19T14:06:35.064Z,2.03
2018-04-19T14:09:01.515Z,1.80
2018-04-19T14:11:27.949Z,2.00
2018-04-19T14:13:54.369Z,2.23
2018-04-19T14:16:20.785Z,2.07
2018-04-19T14:18:47.943Z,2.07
2018-04-19T14:21:15.089Z,1.93
2018-04-19T14:23:42.247Z,1.70
2018-04-19T14:26:09.415Z,1.90
2018-04-19T14:28:35.839Z,2.00
2018-04-19T14:31:02.303Z,1.53
2018-04-19T14:33:28.730Z,2.00
2018-04-19T14:35:55.149Z,1.70
2018-04-19T14:38:21.634Z,2.23
2018-04-19T14:40:48.025Z,2.30
2018-04-19T14:43:14.450Z,1.97
2018-04-19T14:45:40.914Z,2.20
2018-04-19T14:48:08.096Z,2.20
2018-04-19T14:50:34.503Z,2.23
2018-04-19T14:53:00.929Z,2.07
2018-04-19T14:55:27.404Z,2.20
2018-04-19T14:57:53.800Z,2.30
2018-04-19T15:00:20.217Z,2.00
2018-04-19T15:02:46.623Z,2.30
2018-04-19T15:05:13.055Z,2.03
2018-04-19T15:07:40.227Z,2.90
2018-04-19T15:10:06.699Z,2.27
2018-04-19T15:12:33.125Z,2.50
2018-04-19T15:14:59.563Z,2.20
2018-04-19T15:17:25.985Z,2.10
2018-04-19T15:19:52.446Z,2.47
2018-04-19T15:22:18.847Z,2.30
2018-04-19T15:24:45.268Z,2.30
2018-04-19T15:27:11.706Z,2.10
2018-04-19T15:29:38.134Z,2.20
2018-04-19T15:32:04.573Z,2.20
2018-04-19T15:34:31.091Z,2.10
2018-04-19T15:36:57.539Z,2.00
2018-04-19T15:39:23.969Z,1.70
2018-04-19T15:41:50.417Z,2.30
2018-04-19T15:44:16.839Z,1.90
2018-04-19T15:46:43.271Z,2.00
2018-04-19T15:49:09.745Z,1.83
2018-04-19T15:51:36.194Z,2.17
2018-04-19T15:54:03.398Z,2.10
2018-04-19T15:56:29.829Z,2.00
2018-04-19T15:58:56.321Z,2.03
2018-04-19T16:01:22.680Z,2.00
2018-04-19T16:03:49.129Z,2.17
2018-04-19T16:06:15.555Z,1.93
2018-04-19T16:08:41.967Z,2.10
2018-04-19T16:11:08.439Z,1.87
2018-04-19T16:13:34.907Z,2.00
2018-04-19T16:16:01.326Z,2.00
2018-04-19T16:18:27.752Z,2.13
2018-04-19T16:20:54.183Z,2.40
2018-04-19T16:23:20.593Z,2.23
2018-04-19T16:25:47.093Z,2.23
2018-04-19T16:28:13.532Z,2.20
2018-04-19T16:30:39.961Z,1.97
2018-04-19T16:33:06.397Z,2.00
2018-04-19T16:35:32.815Z,1.97
2018-04-19T16:37:59.369Z,2.00
2018-04-19T16:40:25.853Z,2.20
2018-04-19T16:42:52.314Z,1.67
2018-04-19T16:45:18.737Z,1.63
2018-04-19T16:47:45.216Z,1.73
2018-04-19T16:50:11.676Z,2.00
2018-04-19T16:52:38.087Z,1.60
2018-04-19T16:55:04.578Z,2.00
2018-04-19T16:57:31.006Z,1.70
2018-04-19T16:59:57.436Z,1.83
2018-04-19T17:02:23.906Z,1.80
2018-04-19T17:04:50.369Z,1.90
2018-04-19T17:07:17.574Z,1.63
2018-04-19T17:09:44.035Z,1.90
2018-04-19T17:12:10.489Z,1.77
2018-04-19T17:14:37.692Z,1.73
2018-04-19T17:17:04.218Z,1.87
2018-04-19T17:19:30.734Z,1.70
2018-04-19T17:21:57.151Z,1.70
2018-04-19T17:24:23.647Z,1.97
2018-04-19T17:26:50.085Z,1.90
2018-04-19T17:29:16.561Z,1.90
2018-04-19T17:31:42.983Z,2.00
2018-04-19T17:34:10.141Z,1.80
2018-04-19T17:36:36.588Z,1.57
2018-04-19T17:39:03.084Z,1.50
2018-04-19T17:41:29.502Z,1.83
2018-04-19T17:43:55.944Z,1.87
2018-04-19T17:46:22.403Z,1.90
2018-04-19T17:48:49.574Z,1.90
2018-04-19T17:51:16.724Z,2.17
2018-04-19T17:53:43.973Z,1.73
2018-04-19T17:56:10.359Z,1.77
2018-04-19T17:58:36.806Z,2.00
2018-04-19T18:01:03.244Z,2.20
2018-04-19T18:03:29.699Z,2.00
2018-04-19T18:05:56.903Z,1.90
2018-04-19T18:08:23.320Z,2.37
2018-04-19T18:10:49.761Z,1.80
2018-04-19T18:13:16.223Z,2.03
2018-04-19T18:15:42.683Z,2.00
2018-04-19T18:18:09.853Z,2.63
2018-04-19T18:20:36.277Z,2.33
2018-04-19T18:23:02.707Z,2.53
2018-04-19T18:25:29.128Z,2.40
2018-04-19T18:27:55.624Z,2.20
2018-04-19T18:30:22.039Z,2.17
2018-04-19T18:32:48.469Z,2.23
2018-04-19T18:35:14.896Z,2.20
2018-04-19T18:37:41.353Z,2.53
2018-04-19T18:40:07.803Z,2.10
2018-04-19T18:42:34.220Z,2.50
2018-04-19T18:45:00.718Z,2.30
2018-04-19T18:47:27.142Z,2.00
2018-04-19T18:49:54.379Z,2.80
2018-04-19T18:52:21.591Z,2.30
2018-04-19T18:54:48.132Z,2.10
2018-04-19T18:57:14.646Z,2.70
2018-04-19T18:59:41.143Z,1.83
2018-04-19T19:02:08.441Z,2.43
2018-04-19T19:04:34.946Z,2.60
2018-04-19T19:07:02.226Z,2.03
2018-04-19T19:09:28.772Z,2.40
2018-04-19T19:11:55.251Z,2.10
2018-04-19T19:14:21.768Z,2.50
2018-04-19T19:16:48.360Z,2.40
2018-04-19T19:19:27.052Z,2.30
2018-04-19T19:21:54.266Z,2.40
2018-04-19T19:24:20.783Z,2.37
2018-04-19T19:26:47.263Z,2.20
2018-04-19T19:29:13.710Z,2.47
2018-04-19T19:31:40.975Z,2.60
2018-04-19T19:34:08.179Z,2.33
2018-04-19T19:36:34.650Z,2.20
2018-04-19T19:39:01.932Z,2.33
2018-04-19T19:41:28.406Z,2.63
2018-04-19T19:43:54.915Z,2.50
2018-04-19T19:46:21.387Z,2.70
2018-04-19T19:48:47.870Z,2.70
2018-04-19T19:51:14.367Z,2.60
2018-04-19T19:53:40.832Z,2.67
2018-04-19T19:56:07.399Z,3.30
2018-04-19T19:58:33.863Z,2.40
2018-04-19T20:01:00.357Z,3.10
2018-04-19T20:03:26.834Z,3.17
2018-04-19T20:05:53.367Z,2.90
2018-04-19T20:08:19.854Z,3.23
2018-04-19T20:10:46.318Z,3.63
2018-04-19T20:13:13.883Z,3.03
2018-04-19T20:15:40.393Z,3.30
2018-04-19T20:18:06.914Z,3.30
2018-04-19T20:20:33.371Z,3.30
2018-04-19T20:22:59.847Z,3.50
2018-04-19T20:25:26.374Z,3.10
2018-04-19T20:27:52.874Z,2.90
2018-04-19T20:30:19.379Z,3.50
2018-04-19T20:32:46.645Z,3.33
2018-04-19T20:35:13.192Z,3.67
2018-04-19T20:37:39.630Z,3.43
2018-04-19T20:40:06.136Z,4.07
2018-04-19T20:42:32.612Z,3.23
2018-04-19T20:44:59.063Z,3.93
2018-04-19T20:47:25.528Z,3.97
2018-04-19T20:49:52.725Z,2.97
2018-04-19T20:52:19.167Z,3.70
2018-04-19T20:54:45.621Z,3.40
2018-04-19T20:57:12.051Z,3.70
2018-04-19T20:59:38.496Z,3.77
2018-04-19T21:02:04.957Z,4.20
2018-04-19T21:04:32.256Z,4.00
2018-04-19T21:06:58.715Z,4.20
2018-04-19T21:09:25.160Z,4.10
2018-04-19T21:11:51.631Z,4.13
2018-04-19T21:14:18.077Z,4.00
2018-04-19T21:16:44.538Z,4.17
2018-04-19T21:19:10.975Z,4.27
2018-04-19T21:21:37.431Z,4.10
2018-04-19T21:24:03.886Z,4.43
2018-04-19T21:26:30.317Z,4.43
2018-04-19T21:28:57.494Z,5.30
2018-04-19T21:31:23.930Z,4.37
2018-04-19T21:33:50.419Z,4.90
2018-04-19T21:36:17.645Z,4.33
2018-04-19T21:38:44.051Z,5.40
2018-04-19T21:41:10.538Z,4.73
2018-04-19T21:43:37.701Z,5.20
2018-04-19T21:46:04.160Z,4.87
2018-04-19T21:48:30.647Z,4.90
2018-04-19T21:50:57.160Z,5.67
2018-04-19T21:53:23.636Z,4.57
2018-04-19T21:55:50.108Z,4.93
2018-04-19T21:58:16.545Z,6.00
2018-04-19T22:00:42.970Z,5.13
2018-04-19T22:03:09.389Z,5.50
2018-04-19T22:05:35.844Z,5.73
2018-04-19T22:08:02.289Z,5.43
2018-04-19T22:10:28.723Z,5.63
2018-04-19T22:12:55.164Z,5.03
2018-04-19T22:15:21.611Z,6.20
2018-04-19T22:17:48.074Z,5.37
2018-04-19T22:20:15.248Z,5.33
2018-04-19T22:22:41.664Z,5.23
2018-04-19T22:25:08.855Z,5.60
2018-04-19T22:27:35.278Z,5.03
2018-04-19T22:30:01.715Z,5.67
2018-04-19T22:32:28.120Z,5.70
2018-04-19T22:34:55.283Z,4.77
2018-04-19T22:37:21.734Z,5.93
2018-04-19T22:39:48.141Z,5.37
2018-04-19T22:42:14.578Z,6.23
2018-04-19T22:44:41.024Z,4.67
2018-04-19T22:47:07.462Z,6.47
2018-04-19T22:49:33.911Z,5.63
2018-04-19T22:52:01.180Z,6.17
2018-04-19T22:54:27.614Z,6.23
2018-04-19T22:56:54.075Z,5.80
2018-04-19T22:59:21.285Z,6.60
2018-04-19T23:01:47.720Z,6.03
2018-04-19T23:04:14.172Z,6.33
2018-04-19T23:06:40.640Z,5.47
2018-04-19T23:09:07.819Z,5.83
2018-04-19T23:11:34.312Z,5.70
2018-04-19T23:14:00.768Z,5.50
2018-04-19T23:16:27.211Z,5.80
2018-04-19T23:18:53.651Z,5.50
2018-04-19T23:21:20.134Z,5.87
2018-04-19T23:23:47.349Z,6.13
2018-04-19T23:26:13.803Z,5.33
2018-04-19T23:28:40.250Z,5.20
2018-04-19T23:31:06.695Z,6.50
2018-04-19T23:33:33.140Z,5.27
2018-04-19T23:35:59.584Z,5.57
2018-04-19T23:38:26.009Z,6.20
2018-04-19T23:40:52.438Z,5.27
2018-04-19T23:43:19.608Z,6.60
2018-04-19T23:45:46.056Z,5.67
2018-04-19T23:48:12.473Z,5.83
2018-04-19T23:50:38.920Z,5.47
2018-04-19T23:53:05.374Z,6.80
2018-04-19T23:55:31.799Z,6.17
2018-04-19T23:57:59.451Z,5.40
